Flight Track Log - Related Links

Times and Time Zones

All times are in EDT time to prevent confusion due to time zone crossing. See the ACA831 flight status page for this flight to view local times or setup timezone preferences in your user account.

Time Position Orientation Groundspeed Altitude Reporting Facility
EDT Latitude Longitude Course Direction KTS MPH feet Rate Location/Type
Sun 06:29:57 AM 46.2220 6.0860 225° Southwest 188 216 2,400  Level FlightAware ADS-B
Sun 06:30:27 AM 46.2030 6.0580 226° Southwest 188 216 3,700 2,300 Climbing FlightAware ADS-B
Sun 06:30:57 AM 46.1840 6.0310 225° Southwest 193 222 4,700 2,073 Climbing FlightAware ADS-B
Sun 06:31:22 AM 46.1700 6.0100 226° Southwest 195 224 5,600 2,509 Climbing FlightAware ADS-B
Sun 06:31:52 AM 46.1490 5.9770 227° Southwest 196 226 7,000 2,400 Climbing FlightAware ADS-B
Sun 06:32:17 AM 46.1360 5.9500 235° Southwest 206 237 7,800 1,543 Climbing FlightAware ADS-B
Sun 06:32:27 AM 46.1340 5.9340 260° West 230 265 7,900 600 Climbing FlightAware ADS-B
Sun 06:32:47 AM 46.1390 5.9090 286° West 256 295 8,100 1,371 Climbing FlightAware ADS-B
Sun 06:33:02 AM 46.1560 5.8840 314° West 276 318 8,700 2,000 Climbing FlightAware ADS-B
Sun 06:33:17 AM 46.1750 5.8740 340° North 300 345 9,100 1,800 Climbing FlightAware ADS-B
Sun 06:33:42 AM 46.2070 5.8690 354° North 308 354 9,900 2,057 Climbing FlightAware ADS-B
Sun 06:34:27 AM 46.2750 5.8370 342° North 327 376 11,500 1,765 Climbing FlightAware ADS-B
Sun 06:35:07 AM 46.3320 5.7970 334° Northwest 364 419 12,400 1,624 Climbing FlightAware ADS-B
Sun 06:35:52 AM 46.4040 5.7470 334° Northwest 391 450 13,800 2,188 Climbing FlightAware ADS-B
Sun 06:36:32 AM 46.4770 5.6970 335° Northwest 411 473 15,500 2,475 Climbing FlightAware ADS-B
Sun 06:37:12 AM 46.5480 5.6490 335° Northwest 416 479 17,100 2,188 Climbing FlightAware ADS-B
Sun 06:37:57 AM 46.6270 5.5950 335° Northwest 428 493 18,600 2,400 Climbing FlightAware ADS-B
Sun 06:38:37 AM 46.6970 5.5460 334° Northwest 420 483 20,500 2,475 Climbing FlightAware ADS-B
Sun 06:39:17 AM 46.7670 5.4970 334° Northwest 420 483 21,900 1,575 Climbing FlightAware ADS-B
Sun 06:39:57 AM 46.8370 5.4480 334° Northwest 437 503 22,600 900 Climbing FlightAware ADS-B
Sun 06:40:37 AM 46.9120 5.3960 335° Northwest 462 532 23,100 1,050 Climbing FlightAware ADS-B
Sun 06:41:17 AM 46.9910 5.3390 334° Northwest 472 543 24,000 1,341 Climbing FlightAware ADS-B
Sun 06:42:02 AM 47.0830 5.2750 335° Northwest 483 556 25,000 1,200 Climbing FlightAware ADS-B
Sun 06:42:42 AM 47.1450 5.2320 335° Northwest 488 562 25,700 1,040 Climbing FlightAware ADS-B
Sun 06:43:17 AM 47.2270 5.1750 335° Northwest 501 577 26,300 975 Climbing FlightAware ADS-B
Sun 06:44:02 AM 47.3130 5.1110 333° Northwest 506 582 27,000 1,642 Climbing FlightAware ADS-B
Sun 06:44:52 AM 47.4130 5.0060 325° Northwest 492 566 28,900 2,267 Climbing FlightAware ADS-B
Sun 06:45:32 AM 47.4930 4.9220 325° Northwest 483 556 30,400 1,906 Climbing FlightAware ADS-B
Sun 06:46:17 AM 47.5720 4.8250 320° Northwest 463 533 31,600 1,129 Climbing FlightAware ADS-B
Sun 06:46:57 AM 47.6330 4.7400 317° Northwest 448 516 32,000 282 Climbing FlightAware ADS-B
Sun 06:47:42 AM 47.6950 4.6520 316° Northwest 449 517 32,000  Level FlightAware ADS-B
Sun 06:48:22 AM 47.7600 4.5600 316° Northwest 464 534 32,000  Level FlightAware ADS-B
Sun 06:49:02 AM 47.8210 4.4690 315° West 463 533 32,000  Level FlightAware ADS-B
Sun 06:49:47 AM 47.8750 4.3690 309° West 448 516 32,000  Level FlightAware ADS-B
Sun 06:50:27 AM 47.9230 4.2520 302° West 443 510 32,000  Level FlightAware ADS-B
Sun 06:51:12 AM 47.9700 4.1370 301° West 445 512 32,000  Level FlightAware ADS-B
Sun 06:51:47 AM 48.0060 4.0470 301° West 448 516 32,000  Level FlightAware ADS-B
Sun 06:52:32 AM 48.0530 3.9280 301° West 452 520 32,000  Level FlightAware ADS-B
Sun 06:53:17 AM 48.1030 3.8000 300° West 455 524 32,000  Level FlightAware ADS-B
Sun 06:53:57 AM 48.1450 3.6920 300° West 456 525 32,000  Level FlightAware ADS-B
Sun 06:54:03 AM 48.1524 3.6731 300° West 456 525 32,000  Level FlightAware ADS-B
Sun 06:54:37 AM 48.1850 3.5880 300° West 457 526 32,000  Level FlightAware ADS-B
Sun 06:54:50 AM 48.2022 3.5450 301° West 457 526 32,000  Level FlightAware ADS-B
Sun 06:55:22 AM 48.2340 3.4630 300° West 457 526 32,000  Level FlightAware ADS-B
Sun 06:56:02 AM 48.2740 3.3520 298° West 450 518 32,000  Level FlightAware ADS-B
Sun 06:56:42 AM 48.3030 3.2360 291° West 443 510 32,000  Level FlightAware ADS-B
Sun 06:57:27 AM 48.3322 3.0996 288° West 445 512 32,000  Level FlightAware ADS-B
Sun 06:57:59 AM 48.3521 3.0055 288° West 445 512 32,000  Level FlightAware ADS-B
Sun 06:58:52 AM 48.3810 2.8620 287° West 447 514 32,000  Level FlightAware ADS-B
Sun 06:59:07 AM 48.3933 2.8033 288° West 446 513 32,000  Level FlightAware ADS-B
Sun 06:59:37 AM 48.4115 2.7133 287° West 450 518 32,000  Level FlightAware ADS-B
Sun 07:00:07 AM 48.4298 2.6231 287° West 450 518 32,000  Level FlightAware ADS-B
Sun 07:00:51 AM 48.4559 2.4923 287° West 451 519 32,000  Level FlightAware ADS-B
Sun 07:01:22 AM 48.4741 2.4007 287° West 452 520 32,000  Level FlightAware ADS-B
Sun 07:02:37 AM 48.5180 2.1800 287° West 454 522 32,000 -1,000 Level FlightAware ADS-B
Sun 07:02:52 AM 48.5285 2.1253 287° West 1 1 30,500  Descending FlightAware UK
Sun 07:03:12 AM 48.5380 2.0790 287° West 456 525 32,000 2,727 Climbing FlightAware ADS-B
Sun 07:03:25 AM 48.5481 2.0259 286° West 458 527 32,000 -3,429 Level FlightAware ADS-B
Sun 07:03:40 AM 48.5580 1.9796 286° West 454 522 30,400  Descending FlightAware UK
Sun 07:04:02 AM 48.5690 1.9180 286° West 459 528 32,000 3,200 Climbing FlightAware ADS-B
Sun 07:04:10 AM 48.5746 1.8901 287° West 460 529 32,000 -3,462 Level FlightAware ADS-B
Sun 07:04:28 AM 48.5862 1.8328 287° West 456 525 30,500  Descending FlightAware UK
Sun 07:04:45 AM 48.5956 1.7813 287° West 463 533 32,000  Climbing FlightAware ADS-B
Sun 07:05:04 AM 48.6074 1.7213 287° West 464 534 30,500  Descending FlightAware UK
Sun 07:05:17 AM 48.6140 1.6870 287° West 464 534 32,000 3,333 Climbing FlightAware ADS-B
Sun 07:05:31 AM 48.6230 1.6394 286° West 465 535 32,000 -3,103 Level FlightAware ADS-B
Sun 07:05:46 AM 48.6325 1.5902 286° West 466 536 30,500  Descending FlightAware UK
Sun 07:06:07 AM 48.6430 1.5360 286° West 466 536 32,000 2,432 Climbing FlightAware ADS-B
Sun 07:06:23 AM 48.6543 1.4746 286° West 466 536 32,000 -2,308 Level FlightAware ADS-B
Sun 07:06:46 AM 48.6685 1.4034 286° West 462 532 30,500 -2,195 Descending FlightAware UK
Sun 07:07:04 AM 48.6790 1.3468 286° West 464 534 30,500  Level FlightAware UK
Sun 07:07:22 AM 48.6893 1.2900 285° West 466 536 30,500 3,214 Level FlightAware UK
Sun 07:07:32 AM 48.6930 1.2680 285° West 468 539 32,000  Climbing FlightAware ADS-B
Sun 07:07:52 AM 48.7068 1.1952 285° West 468 539 30,500  Descending FlightAware UK
Sun 07:08:12 AM 48.7180 1.1370 285° West 469 540 32,000  Climbing FlightAware ADS-B
Sun 07:08:28 AM 48.7283 1.0826 285° West 466 536 30,500 -2,647 Descending FlightAware UK
Sun 07:08:46 AM 48.7388 1.0264 286° West 466 536 30,500 3,750 Level FlightAware UK
Sun 07:08:52 AM 48.7400 1.0160 286° West 470 541 32,000  Climbing FlightAware ADS-B
Sun 07:09:16 AM 48.7561 0.9304 286° West 468 539 30,500  Descending FlightAware UK
Sun 07:09:37 AM 48.7670 0.8690 286° West 470 541 32,000  Climbing FlightAware ADS-B
Sun 07:09:58 AM 48.7804 0.7978 286° West 468 539 30,500  Descending FlightAware UK
Sun 07:10:17 AM 48.7900 0.7450 286° West 471 542 32,000  Climbing FlightAware ADS-B
Sun 07:10:34 AM 48.8014 0.6833 286° West 466 536 30,500  Descending FlightAware UK
Sun 07:10:57 AM 48.8130 0.6190 286° West 471 542 32,000  Climbing FlightAware ADS-B
Sun 07:11:15 AM 48.8255 0.5503 286° West 468 539 30,500 -2,143 Descending FlightAware UK
Sun 07:11:39 AM 48.8393 0.4738 285° West 462 532 30,500 3,333 Level FlightAware UK
Sun 07:11:42 AM 48.8400 0.4690 285° West 471 542 32,000  Climbing FlightAware ADS-B
Sun 07:11:57 AM 48.8495 0.4168 285° West 460 529 30,500 -2,727 Descending FlightAware UK
Sun 07:12:15 AM 48.8596 0.3605 285° West 466 536 30,500 3,600 Level FlightAware UK
Sun 07:12:22 AM 48.8620 0.3490 285° West 470 541 32,000  Climbing FlightAware ADS-B
Sun 07:12:51 AM 48.8800 0.2468 285° West 462 532 30,500  Descending FlightAware UK
Sun 07:13:07 AM 48.8860 0.2120 285° West 468 539 32,000  Climbing FlightAware ADS-B
Sun 07:13:27 AM 48.9003 0.1326 285° West 466 536 30,500  Descending FlightAware UK
Sun 07:13:47 AM 48.9100 0.0760 285° West 468 539 32,000  Climbing FlightAware ADS-B
Sun 07:14:03 AM 48.9202 0.0191 285° West 462 532 30,500 -2,647 Descending FlightAware UK
Sun 07:14:21 AM 48.9290 -0.0385 283° West 462 532 30,500 3,750 Level FlightAware UK
Sun 07:14:27 AM 48.9310 -0.0480 283° West 467 537 32,000 1,765 Climbing FlightAware ADS-B
Sun 07:15:12 AM 48.9570 -0.1950 285° West 465 535 32,000 -1,364 Level FlightAware ADS-B
Sun 07:15:33 AM 48.9686 -0.2656 285° West 456 525 30,500  Descending FlightAware UK
Sun 07:15:47 AM 48.9760 -0.3040 285° West 465 535 32,000  Climbing FlightAware ADS-B
Sun 07:15:51 AM 48.9785 -0.3225 285° West 456 525 30,500 -5,625 Descending FlightAware UK
Sun 07:16:03 AM 48.9851 -0.3603 285° West 456 525 30,500 2,195 Level FlightAware UK
Sun 07:16:32 AM 49.0000 -0.4460 285° West 464 534 32,000  Climbing FlightAware ADS-B
Sun 07:17:03 AM 49.0173 -0.5491 285° West 456 525 30,500  Descending FlightAware UK
Sun 07:17:17 AM 49.0250 -0.5890 285° West 464 534 32,000 1,667 Climbing FlightAware ADS-B
Sun 07:17:57 AM 49.0450 -0.7120 284° West 464 534 32,000  Level FlightAware ADS-B
Sun 07:18:42 AM 49.0700 -0.8600 285° West 465 535 32,000  Level FlightAware ADS-B
Sun 07:19:22 AM 49.0900 -0.9780 285° West 465 535 32,000 -1,607 Level FlightAware ADS-B
Sun 07:19:38 AM 49.0997 -1.0417 285° West 454 522 30,500  Descending FlightAware UK
Sun 07:20:02 AM 49.1100 -1.1030 285° West 465 535 32,000  Climbing FlightAware ADS-B
Sun 07:20:38 AM 49.1308 -1.2322 285° West 454 522 30,500  Descending FlightAware UK
Sun 07:20:47 AM 49.1340 -1.2470 285° West 466 536 32,000  Climbing FlightAware ADS-B
Sun 07:21:02 AM 49.1433 -1.3087 285° West 454 522 30,500  Descending FlightAware UK
Sun 07:21:27 AM 49.1550 -1.3780 285° West 467 537 32,000  Climbing FlightAware ADS-B
Sun 07:21:56 AM 49.1715 -1.4814 285° West 454 522 30,500  Descending FlightAware UK
Sun 07:22:07 AM 49.1740 -1.4930 285° West 468 539 32,000  Climbing FlightAware ADS-B
Sun 07:22:26 AM 49.1870 -1.5771 285° West 454 522 30,500 -2,093 Descending FlightAware UK
Sun 07:22:50 AM 49.1995 -1.6542 284° West 456 525 30,500 3,462 Level FlightAware UK
Sun 07:22:52 AM 49.1990 -1.6500 284° West 468 539 32,000  Climbing FlightAware ADS-B
Sun 07:23:14 AM 49.2119 -1.7314 284° West 454 522 30,500  Descending FlightAware UK
Sun 07:23:32 AM 49.2190 -1.7780 284° West 468 539 32,000  Climbing FlightAware ADS-B
Sun 07:23:56 AM 49.2329 -1.8668 284° West 454 522 30,500 -2,143 Descending FlightAware UK
Sun 07:24:14 AM 49.2416 -1.9241 283° West 454 522 30,500 4,286 Level FlightAware UK
Sun 07:24:17 AM 49.2400 -1.9110 283° West 468 539 32,000  Climbing FlightAware ADS-B
Sun 07:24:38 AM 49.2536 -2.0013 283° West 450 518 30,500 -2,308 Descending FlightAware UK
Sun 07:24:56 AM 49.2630 -2.0593 284° West 450 518 30,500 4,737 Level FlightAware UK
Sun 07:24:57 AM 49.2610 -2.0440 284° West 469 540 32,000  Climbing FlightAware ADS-B
Sun 07:25:14 AM 49.2718 -2.1172 284° West 450 518 30,500  Descending FlightAware UK
Sun 07:25:37 AM 49.2820 -2.1800 284° West 467 537 32,000  Climbing FlightAware ADS-B
Sun 07:25:55 AM 49.2926 -2.2520 284° West 450 518 30,500 -2,143 Descending FlightAware UK
Sun 07:26:19 AM 49.3044 -2.3292 283° West 450 518 30,500 3,333 Level FlightAware UK
Sun 07:26:22 AM 49.3030 -2.3230 283° West 468 539 32,000  Climbing FlightAware ADS-B
Sun 07:26:37 AM 49.3134 -2.3874 283° West 450 518 30,500  Descending FlightAware UK
Sun 07:26:57 AM 49.3210 -2.4400 283° West 469 540 32,000  Climbing FlightAware ADS-B
Sun 07:27:13 AM 49.3306 -2.5037 283° West 452 520 30,500 -2,647 Descending FlightAware UK
Sun 07:27:31 AM 49.3393 -2.5623 283° West 452 520 30,500 3,103 Level FlightAware UK
Sun 07:27:42 AM 49.3430 -2.5810 283° West 470 541 32,000  Climbing FlightAware ADS-B
Sun 07:28:01 AM 49.3540 -2.6600 283° West 454 522 30,500  Descending FlightAware UK
Sun 07:28:12 AM 49.3570 -2.6790 283° West 470 541 32,000  Climbing FlightAware ADS-B
Sun 07:28:49 AM 49.3772 -2.8164 283° West 454 522 30,500  Descending FlightAware UK
Sun 07:28:57 AM 49.3800 -2.8330 283° West 469 540 32,000  Climbing FlightAware ADS-B
Sun 07:29:13 AM 49.3889 -2.8938 283° West 454 522 30,500 -2,250 Descending FlightAware UK
Sun 07:29:37 AM 49.4004 -2.9721 283° West 454 522 30,500 3,103 Level FlightAware UK
Sun 07:29:42 AM 49.4010 -2.9790 283° West 470 541 32,000  Climbing FlightAware ADS-B
Sun 07:30:07 AM 49.4144 -3.0694 283° West 454 522 30,500 -1,837 Descending FlightAware UK
Sun 07:30:31 AM 49.4257 -3.1477 283° West 454 522 30,500 3,600 Level FlightAware UK
Sun 07:30:32 AM 49.4250 -3.1440 283° West 472 543 32,000  Climbing FlightAware ADS-B
Sun 07:30:49 AM 49.4341 -3.2065 283° West 454 522 30,500  Descending FlightAware UK
Sun 07:31:17 AM 49.4460 -3.2890 283° West 473 544 32,000  Climbing FlightAware ADS-B
Sun 07:32:01 AM 49.4679 -3.4413 283° West 458 527 30,500  Descending FlightAware UK
Sun 07:32:12 AM 49.4720 -3.4710 283° West 472 543 32,000  Climbing FlightAware ADS-B
Sun 07:32:31 AM 49.4817 -3.5395 283° West 456 525 30,500  Descending FlightAware UK
Sun 07:32:57 AM 49.4930 -3.6170 283° West 472 543 32,000  Climbing FlightAware ADS-B
Sun 07:33:19 AM 49.5036 -3.6968 283° West 456 525 30,500  Descending FlightAware UK
Sun 07:33:37 AM 49.5110 -3.7470 283° West 472 543 32,000  Climbing FlightAware ADS-B
Sun 07:34:01 AM 49.5227 -3.8344 283° West 456 525 30,500  Descending FlightAware UK
Sun 07:34:12 AM 49.5260 -3.8620 283° West 469 540 32,000  Climbing FlightAware ADS-B
Sun 07:34:37 AM 49.5384 -3.9523 283° West 458 527 30,500 -2,093 Descending FlightAware UK
Sun 07:34:55 AM 49.5462 -4.0112 281° West 458 527 30,500 3,600 Level FlightAware UK
Sun 07:35:02 AM 49.5480 -4.0250 281° West 467 537 32,000  Climbing FlightAware ADS-B
Sun 07:35:25 AM 49.5589 -4.1093 281° West 456 525 30,500 -1,731 Descending FlightAware UK
Sun 07:35:54 AM 49.5711 -4.2062 281° West 456 525 30,500 2,813 Level FlightAware UK
Sun 07:35:57 AM 49.5720 -4.2060 281° West 465 535 32,000  Climbing FlightAware ADS-B
Sun 07:36:30 AM 49.5863 -4.3231 281° West 456 525 30,500  Descending FlightAware UK
Sun 07:36:37 AM 49.5880 -4.3330 281° West 463 533 32,000  Climbing FlightAware ADS-B
Sun 07:36:54 AM 49.5964 -4.4009 281° West 456 525 30,500 -2,571 Descending FlightAware UK
Sun 07:37:12 AM 49.6039 -4.4592 281° West 454 522 30,500 5,000 Level FlightAware UK
Sun 07:37:12 AM 49.6020 -4.4390 281° West 462 532 32,000  Climbing FlightAware ADS-B
Sun 07:37:30 AM 49.6113 -4.5173 281° West 458 527 30,500 -2,500 Descending FlightAware UK
Sun 07:37:48 AM 49.6186 -4.5753 281° West 456 525 30,500 3,333 Level FlightAware UK
Sun 07:37:57 AM 49.6200 -4.5830 281° West 460 529 32,000  Climbing FlightAware ADS-B
Sun 07:38:12 AM 49.6283 -4.6524 281° West 454 522 30,500 -2,727 Descending FlightAware UK
Sun 07:38:30 AM 49.6356 -4.7101 281° West 452 520 30,500  Level FlightAware UK
Sun 07:38:48 AM 49.6429 -4.7677 281° West 452 520 30,500 2,143 Level FlightAware UK
Sun 07:39:12 AM 49.6500 -4.8230 281° West 455 524 32,000  Climbing FlightAware ADS-B
Sun 07:39:30 AM 49.6598 -4.9010 281° West 450 518 30,500 -1,875 Descending FlightAware UK
Sun 07:40:00 AM 49.6715 -4.9965 281° West 446 513 30,500  Level FlightAware UK
Sun 07:40:18 AM 49.6785 -5.0539 281° West 446 513 30,500 4,091 Level FlightAware UK
Sun 07:40:22 AM 49.6770 -5.0410 281° West 456 525 32,000  Climbing FlightAware ADS-B
Sun 07:40:42 AM 49.6877 -5.1302 281° West 446 513 30,500 -2,368 Descending FlightAware UK
Sun 07:41:00 AM 49.6947 -5.1875 281° West 446 513 30,500  Level FlightAware UK
Sun 07:41:18 AM 49.7016 -5.2448 281° West 448 516 30,500 2,143 Level FlightAware UK
Sun 07:41:42 AM 49.7090 -5.3010 281° West 454 522 32,000  Climbing FlightAware ADS-B
Sun 07:42:00 AM 49.7176 -5.3786 281° West 448 516 30,500 -2,500 Descending FlightAware UK
Sun 07:42:18 AM 49.7246 -5.4360 281° West 448 516 30,500  Level FlightAware UK
Sun 07:42:36 AM 49.7316 -5.4933 281° West 446 513 30,500  Level FlightAware UK
Sun 07:42:54 AM 49.7383 -5.5509 280° West 448 516 30,500 4,286 Level FlightAware UK
Sun 07:42:57 AM 49.7370 -5.5400 280° West 456 525 32,000  Climbing FlightAware ADS-B
Sun 07:43:12 AM 49.7450 -5.6085 280° West 450 518 30,500 -2,727 Descending FlightAware UK
Sun 07:43:30 AM 49.7517 -5.6661 280° West 450 518 30,500 3,600 Level FlightAware UK
Sun 07:43:37 AM 49.7530 -5.6770 280° West 456 525 32,000  Climbing FlightAware ADS-B
Sun 07:43:54 AM 49.7607 -5.7431 280° West 448 516 30,500 -2,571 Descending FlightAware UK
Sun 07:44:12 AM 49.7673 -5.8009 280° West 450 518 30,500 3,913 Level FlightAware UK
Sun 07:44:17 AM 49.7680 -5.8070 280° West 458 527 32,000  Climbing FlightAware ADS-B
Sun 07:44:36 AM 49.7761 -5.8781 280° West 452 520 30,500 -2,432 Descending FlightAware UK
Sun 07:44:54 AM 49.7828 -5.9353 280° West 454 522 30,500 3,462 Level FlightAware UK
Sun 07:45:02 AM 49.7850 -5.9550 280° West 458 527 32,000  Climbing FlightAware ADS-B
Sun 07:45:18 AM 49.7917 -6.0126 280° West 458 527 30,500 -2,647 Descending FlightAware UK
Sun 07:45:36 AM 49.7981 -6.0705 280° West 460 529 30,500 3,750 Level FlightAware UK
Sun 07:45:42 AM 49.8000 -6.0840 280° West 457 526 32,000  Climbing FlightAware ADS-B
Sun 07:46:18 AM 49.8134 -6.2055 280° West 454 522 30,500  Descending FlightAware UK
Sun 07:46:27 AM 49.8160 -6.2260 280° West 456 525 32,000  Climbing FlightAware ADS-B
Sun 07:46:42 AM 49.8217 -6.2825 280° West 456 525 30,500 -2,727 Descending FlightAware UK
Sun 07:47:00 AM 49.8281 -6.3402 280° West 458 527 30,500 3,600 Level FlightAware UK
Sun 07:47:07 AM 49.8300 -6.3550 280° West 456 525 32,000  Climbing FlightAware ADS-B
Sun 07:47:24 AM 49.8367 -6.4171 280° West 456 525 30,500 -2,571 Descending FlightAware UK
Sun 07:47:42 AM 49.8432 -6.4749 280° West 456 525 30,500 3,913 Level FlightAware UK
Sun 07:47:47 AM 49.8450 -6.4830 280° West 456 525 32,000  Climbing FlightAware ADS-B
Sun 07:48:06 AM 49.8516 -6.5520 280° West 460 529 30,500 -2,432 Descending FlightAware UK
Sun 07:48:24 AM 49.8577 -6.6099 279° West 458 527 30,500 3,462 Level FlightAware UK
Sun 07:48:32 AM 49.8600 -6.6280 279° West 455 524 32,000  Climbing FlightAware ADS-B
Sun 07:48:48 AM 49.8659 -6.6870 279° West 458 527 30,500 -2,647 Descending FlightAware UK
Sun 07:49:06 AM 49.8721 -6.7448 279° West 464 534 30,500 3,750 Level FlightAware UK
Sun 07:49:12 AM 49.8740 -6.7580 279° West 454 522 32,000  Climbing FlightAware ADS-B
Sun 07:49:30 AM 49.8803 -6.8217 279° West 462 532 30,500 -2,500 Descending FlightAware UK
Sun 07:49:48 AM 49.8866 -6.8793 280° West 462 532 30,500 3,333 Level FlightAware UK
Sun 07:49:57 AM 49.8890 -6.8970 280° West 453 521 32,000  Climbing FlightAware ADS-B
Sun 07:50:12 AM 49.8948 -6.9560 280° West 460 529 30,500 -2,727 Descending FlightAware UK
Sun 07:50:30 AM 49.9007 -7.0129 279° West 460 529 30,500 3,600 Level FlightAware UK
Sun 07:50:37 AM 49.9030 -7.0270 279° West 452 520 32,000  Climbing FlightAware ADS-B
Sun 07:50:54 AM 49.9085 -7.0896 279° West 462 532 30,500 -2,571 Descending FlightAware UK
Sun 07:51:12 AM 49.9147 -7.1470 279° West 460 529 30,500 3,913 Level FlightAware UK
Sun 07:51:17 AM 49.9160 -7.1450 279° West 450 518 32,000 500 Climbing FlightAware ADS-B
Sun 07:51:36 AM 49.9262 -7.2213 279° West 456 525 30,700 -1,622 Descending FlightAware UK
Sun 07:51:54 AM 49.9350 -7.2763 284° West 454 522 31,000 5,143 Climbing FlightAware UK
Sun 07:51:57 AM 49.9360 -7.2790 284° West 435 501 32,500 333 Climbing FlightAware ADS-B
Sun 07:52:12 AM 49.9442 -7.3303 284° West 452 520 31,100 -2,182 Descending FlightAware UK
Sun 07:52:30 AM 49.9536 -7.3843 285° West 450 518 31,300 667 Climbing FlightAware UK
Sun 07:52:48 AM 49.9632 -7.4383 285° West 452 520 31,500 833 Climbing FlightAware UK
Sun 07:53:06 AM 49.9729 -7.4921 286° West 452 520 31,800 4,500 Climbing FlightAware UK
Sun 07:53:12 AM 49.9720 -7.4810 286° West 433 498 33,300 500 Climbing FlightAware ADS-B
Sun 07:53:30 AM 49.9857 -7.5638 286° West 450 518 32,000 686 Descending FlightAware UK
Sun 07:53:47 AM 49.9920 -7.5990 285° West 433 498 33,700 667 Climbing FlightAware ADS-B
Sun 07:53:48 AM 49.9952 -7.6177 285° West 452 520 32,200 -4,105 Descending FlightAware UK
Sun 07:54:06 AM 50.0047 -7.6716 285° West 456 525 32,400 500 Climbing FlightAware UK
Sun 07:54:24 AM 50.0142 -7.7258 285° West 454 522 32,500 3,692 Climbing FlightAware UK
Sun 07:54:32 AM 50.0150 -7.7310 285° West 436 502 34,000 -250 Climbing FlightAware ADS-B
Sun 07:54:48 AM 50.0266 -7.7984 285° West 452 520 32,400 -2,824 Descending FlightAware UK
Sun 07:55:06 AM 50.0360 -7.8531 285° West 454 522 32,400 4,000 Level FlightAware UK
Sun 07:55:12 AM 50.0290 -7.8120 285° West 440 506 34,000 250 Climbing FlightAware ADS-B
Sun 07:55:30 AM 50.0485 -7.9266 285° West 454 522 32,500 -2,667 Descending FlightAware UK
Sun 07:55:48 AM 50.0578 -7.9822 285° West 452 520 32,400 2,813 Descending FlightAware UK
Sun 07:56:02 AM 50.0640 -8.0190 285° West 441 507 34,000  Climbing FlightAware ADS-B
Sun 07:56:18 AM 50.0730 -8.0746 285° West 450 518 32,400 -2,824 Descending FlightAware UK
Sun 07:56:36 AM 50.0821 -8.1301 284° West 452 520 32,400 3,310 Level FlightAware UK
Sun 07:56:47 AM 50.0870 -8.1540 284° West 441 507 34,000 200 Climbing FlightAware ADS-B
Sun 07:57:06 AM 50.0970 -8.2218 284° West 454 522 32,500  Descending FlightAware UK
Sun 07:57:27 AM 50.1070 -8.2780 284° West 441 507 34,000  Climbing FlightAware ADS-B
Sun 07:57:42 AM 50.1150 -8.3324 284° West 452 520 32,500 -2,727 Descending FlightAware UK
Sun 07:58:00 AM 50.1241 -8.3878 284° West 452 520 32,500 3,600 Level FlightAware UK
Sun 07:58:07 AM 50.1270 -8.3990 284° West 442 509 34,000  Climbing FlightAware ADS-B
Sun 07:58:24 AM 50.1363 -8.4615 284° West 450 518 32,500 -2,571 Descending FlightAware UK
Sun 07:58:42 AM 50.1455 -8.5169 285° West 450 518 32,500 3,214 Level FlightAware UK
Sun 07:58:52 AM 50.1490 -8.5380 285° West 442 509 34,000  Climbing FlightAware ADS-B
Sun 07:59:12 AM 50.1605 -8.6092 285° West 450 518 32,500 -2,368 Descending FlightAware UK
Sun 07:59:30 AM 50.1693 -8.6647 284° West 450 518 32,500 4,500 Level FlightAware UK
Sun 07:59:32 AM 50.1700 -8.6650 284° West 442 509 34,000  Climbing FlightAware ADS-B
Sun 07:59:48 AM 50.1782 -8.7203 284° West 454 522 32,500 -2,647 Descending FlightAware UK
Sun 08:00:06 AM 50.1870 -8.7758 284° West 454 522 32,500 3,103 Level FlightAware UK
Sun 08:00:17 AM 50.1920 -8.8020 284° West 441 507 34,000  Climbing FlightAware ADS-B
Sun 08:00:36 AM 50.2018 -8.8683 284° West 454 522 32,500  Descending FlightAware UK
Sun 08:00:52 AM 50.2080 -8.9050 284° West 441 507 34,000  Climbing FlightAware ADS-B
Sun 08:00:54 AM 50.2106 -8.9239 284° West 456 525 32,500 -4,500 Descending FlightAware UK
Sun 08:01:12 AM 50.2193 -8.9795 284° West 456 525 32,500  Level FlightAware UK
Sun 08:01:30 AM 50.2283 -9.0350 284° West 456 525 32,500 3,600 Level FlightAware UK
Sun 08:01:37 AM 50.2300 -9.0410 284° West 439 505 34,000 1,731 Climbing FlightAware ADS-B
Sun 08:02:22 AM 50.2490 -9.1740 283° West 439 505 34,000  Level FlightAware ADS-B
Sun 08:02:57 AM 50.2680 -9.2860 285° West 438 504 34,000  Level FlightAware ADS-B
Sun 08:03:42 AM 50.2880 -9.4150 284° West 438 504 34,000  Level FlightAware ADS-B
Sun 08:04:17 AM 50.3020 -9.5180 282° West 438 504 34,000  Level FlightAware ADS-B
Sun 08:05:07 AM 50.3290 -9.6870 284° West 438 504 34,000  Level FlightAware ADS-B
Sun 08:05:42 AM 50.3470 -9.8030 284° West 438 504 34,000  Level FlightAware ADS-B
Sun 08:06:27 AM 50.3650 -9.9240 283° West 438 504 34,000  Level FlightAware ADS-B
Sun 08:07:27 AM 50.3940 -10.1230 283° West 438 504 34,000  Level FlightAware ADS-B
Sun 08:08:07 AM 50.4100 -10.2280 283° West 438 504 34,000  Level FlightAware ADS-B
Sun 08:08:52 AM 50.4330 -10.3880 283° West 436 502 34,000  Level FlightAware ADS-B
Sun 08:09:37 AM 50.4520 -10.5230 283° West 436 502 34,000  Level FlightAware ADS-B
Sun 08:10:12 AM 50.4660 -10.6210 283° West 436 502 34,000  Level FlightAware ADS-B
Sun 08:10:52 AM 50.4800 -10.7260 282° West 436 502 34,000  Level FlightAware ADS-B
Sun 08:11:42 AM 50.4980 -10.8580 282° West 436 502 34,000  Level FlightAware ADS-B
Sun 08:12:22 AM 50.5120 -10.9630 282° West 436 502 34,000  Level FlightAware ADS-B
Sun 08:12:52 AM 50.5230 -11.0420 282° West 436 502 34,000  Level FlightAware ADS-B
Sun 08:13:32 AM 50.5370 -11.1480 282° West 436 502 34,000  Level FlightAware ADS-B
Sun 08:14:12 AM 50.5510 -11.2540 282° West 436 502 34,000  Level FlightAware ADS-B
Sun 08:14:52 AM 50.5650 -11.3590 282° West 436 502 34,000  Level FlightAware ADS-B
Sun 08:15:32 AM 50.5800 -11.4650 283° West 436 502 34,000  Level FlightAware ADS-B
Sun 08:16:22 AM 50.5970 -11.5970 282° West 436 502 34,000  Level FlightAware ADS-B
Sun 08:17:02 AM 50.6120 -11.7030 283° West 436 502 34,000  Level FlightAware ADS-B
Sun 08:17:42 AM 50.6260 -11.8080 282° West 436 502 34,000  Level FlightAware ADS-B
Sun 08:18:22 AM 50.6400 -11.9140 282° West 436 502 34,000  Level FlightAware ADS-B
Sun 08:19:02 AM 50.6540 -12.0200 282° West 436 502 34,000  Level FlightAware ADS-B
Sun 08:21:00 AM 50.7226 -12.3659 288° West  Level Estimated
Sun 08:22:00 AM 50.7571 -12.5422 287° West  Level Estimated
Sun 08:23:00 AM 50.7914 -12.7187 287° West  Level Estimated
Sun 08:24:00 AM 50.8254 -12.8955 287° West  Level Estimated
Sun 08:25:00 AM 50.8591 -13.0725 287° West  Level Estimated
Sun 08:26:00 AM 50.8925 -13.2499 287° West  Level Estimated
Sun 08:27:00 AM 50.9257 -13.4274 287° West  Level Estimated
Sun 08:28:00 AM 50.9586 -13.6052 286° West  Level Estimated
Sun 08:29:00 AM 50.9912 -13.7833 286° West  Level Estimated
Sun 08:30:00 AM 51.0236 -13.9616 286° West  Level Estimated
Sun 08:31:00 AM 51.0557 -14.1402 286° West  Level Estimated
Sun 08:32:00 AM 51.0875 -14.3189 286° West  Level Estimated
Sun 08:33:00 AM 51.1190 -14.4980 286° West  Level Estimated
Sun 08:34:00 AM 51.1503 -14.6773 286° West  Level Estimated
Sun 08:35:00 AM 51.1813 -14.8568 285° West  Level Estimated
Sun 08:36:00 AM 51.2120 -15.0366 285° West  Level Estimated
Sun 08:37:00 AM 51.2424 -15.2166 285° West  Level Estimated
Sun 08:38:00 AM 51.2726 -15.3969 285° West  Level Estimated
Sun 08:39:00 AM 51.3025 -15.5773 285° West  Level Estimated
Sun 08:40:00 AM 51.3321 -15.7581 285° West  Level Estimated
Sun 08:41:00 AM 51.3614 -15.9390 285° West  Level Estimated
Sun 08:42:00 AM 51.3905 -16.1202 284° West  Level Estimated
Sun 08:43:00 AM 51.4192 -16.3016 284° West  Level Estimated
Sun 08:44:00 AM 51.4477 -16.4832 284° West  Level Estimated
Sun 08:45:00 AM 51.4759 -16.6651 284° West  Level Estimated
Sun 08:46:00 AM 51.5039 -16.8472 284° West  Level Estimated
Sun 08:47:00 AM 51.5315 -17.0295 284° West  Level Estimated
Sun 08:48:00 AM 51.5589 -17.2120 284° West  Level Estimated
Sun 08:49:00 AM 51.5860 -17.3948 283° West  Level Estimated
Sun 08:50:00 AM 51.6128 -17.5778 283° West  Level Estimated
Sun 08:51:00 AM 51.6397 -17.7639 283° West  Level Estimated
Sun 08:52:00 AM 51.6663 -17.9502 283° West  Level Estimated
Sun 08:53:00 AM 51.6927 -18.1367 283° West  Level Estimated
Sun 08:54:00 AM 51.7187 -18.3234 283° West  Level Estimated
Sun 08:55:00 AM 51.7444 -18.5104 283° West  Level Estimated
Sun 08:56:00 AM 51.7699 -18.6975 282° West  Level Estimated
Sun 08:57:00 AM 51.7951 -18.8849 282° West  Level Estimated
Sun 08:58:00 AM 51.8199 -19.0725 282° West  Level Estimated
Sun 08:59:00 AM 51.8445 -19.2603 282° West  Level Estimated
Sun 09:00:00 AM 51.8687 -19.4483 282° West  Level Estimated
Sun 09:01:00 AM 51.8927 -19.6364 282° West  Level Estimated
Sun 09:02:00 AM 51.9164 -19.8248 282° West  Level Estimated
Sun 09:03:00 AM 51.9397 -20.0134 281° West  Level Estimated
Sun 09:04:00 AM 51.9628 -20.2022 281° West  Level Estimated
Sun 09:04:27 AM 51.0000 -20.0000 274° West 411 473 34,000  Level ETMS Enhanced Traffic Management System
Sun 09:05:00 AM 51.9855 -20.3912 281° West  Level Estimated
Sun 09:06:00 AM 52.0080 -20.5804 281° West  Level Estimated
Sun 09:07:00 AM 52.0301 -20.7697 281° West  Level Estimated
Sun 09:08:00 AM 52.0519 -20.9593 281° West  Level Estimated
Sun 09:09:00 AM 52.0735 -21.1490 281° West  Level Estimated
Sun 09:10:00 AM 51.0584 -21.6335 273° West 411 473 34,000  Level FlightAware Transoceanic
Sun 09:11:00 AM 51.0635 -21.8153 272° West 411 473 34,000  Level FlightAware Transoceanic
Sun 09:12:00 AM 51.0683 -21.9970 272° West 411 473 34,000  Level FlightAware Transoceanic
Sun 09:13:00 AM 51.0728 -22.1789 272° West 411 473 34,000  Level FlightAware Transoceanic
Sun 09:14:00 AM 51.0771 -22.3607 272° West 411 473 34,000  Level FlightAware Transoceanic
Sun 09:15:00 AM 51.0810 -22.5426 272° West 411 473 34,000  Level FlightAware Transoceanic
Sun 09:16:00 AM 51.0847 -22.7245 272° West 411 473 34,000  Level FlightAware Transoceanic
Sun 09:17:00 AM 51.0881 -22.9064 272° West 411 473 34,000  Level FlightAware Transoceanic
Sun 09:18:00 AM 51.0912 -23.0884 271° West 411 473 34,000  Level FlightAware Transoceanic
Sun 09:19:00 AM 51.0940 -23.2704 271° West 411 473 34,000  Level FlightAware Transoceanic
Sun 09:20:00 AM 51.0966 -23.4524 271° West 411 473 34,000  Level FlightAware Transoceanic
Sun 09:21:00 AM 51.0988 -23.6344 271° West 411 473 34,000  Level FlightAware Transoceanic
Sun 09:22:00 AM 51.1008 -23.8165 271° West 411 473 34,000  Level FlightAware Transoceanic
Sun 09:23:00 AM 51.1025 -23.9985 271° West 411 473 34,000  Level FlightAware Transoceanic
Sun 09:24:00 AM 51.1039 -24.1806 271° West 411 473 34,000  Level FlightAware Transoceanic
Sun 09:25:00 AM 51.1051 -24.3627 270° West 411 473 34,000  Level FlightAware Transoceanic
Sun 09:26:00 AM 51.1059 -24.5448 270° West 411 473 34,000  Level FlightAware Transoceanic
Sun 09:27:00 AM 51.1065 -24.7269 270° West 411 473 34,000  Level FlightAware Transoceanic
Sun 09:28:00 AM 51.1068 -24.9090 270° West 411 473 34,000  Level FlightAware Transoceanic
Sun 09:29:00 AM 51.1068 -25.0910 270° West 411 473 34,000  Level FlightAware Transoceanic
Sun 09:30:00 AM 51.1065 -25.2731 270° West 411 473 34,000  Level FlightAware Transoceanic
Sun 09:31:00 AM 51.1059 -25.4552 270° West 411 473 34,000  Level FlightAware Transoceanic
Sun 09:32:00 AM 51.1051 -25.6373 270° West 411 473 34,000  Level FlightAware Transoceanic
Sun 09:33:00 AM 51.1039 -25.8194 269° West 411 473 34,000  Level FlightAware Transoceanic
Sun 09:34:00 AM 51.1025 -26.0015 269° West 411 473 34,000  Level FlightAware Transoceanic
Sun 09:35:00 AM 51.1008 -26.1835 269° West 411 473 34,000  Level FlightAware Transoceanic
Sun 09:36:00 AM 51.0988 -26.3656 269° West 411 473 34,000  Level FlightAware Transoceanic
Sun 09:37:00 AM 51.0966 -26.5476 269° West 411 473 34,000  Level FlightAware Transoceanic
Sun 09:38:00 AM 51.0940 -26.7296 269° West 411 473 34,000  Level FlightAware Transoceanic
Sun 09:39:00 AM 51.0912 -26.9116 269° West 411 473 34,000  Level FlightAware Transoceanic
Sun 09:40:00 AM 51.0881 -27.0936 268° West 411 473 34,000  Level FlightAware Transoceanic
Sun 09:41:00 AM 51.0847 -27.2755 268° West 411 473 34,000  Level FlightAware Transoceanic
Sun 09:42:00 AM 51.0810 -27.4574 268° West 411 473 34,000  Level FlightAware Transoceanic
Sun 09:43:00 AM 51.0771 -27.6393 268° West 411 473 34,000  Level FlightAware Transoceanic
Sun 09:44:00 AM 51.0728 -27.8211 268° West 411 473 34,000  Level FlightAware Transoceanic
Sun 09:45:00 AM 51.0683 -28.0030 268° West 411 473 34,000  Level FlightAware Transoceanic
Sun 09:46:00 AM 51.0635 -28.1847 268° West 411 473 34,000  Level FlightAware Transoceanic
Sun 09:47:00 AM 51.0584 -28.3665 267° West 411 473 34,000  Level FlightAware Transoceanic
Sun 09:48:00 AM 51.0531 -28.5482 267° West 411 473 34,000  Level FlightAware Transoceanic
Sun 09:49:00 AM 51.0474 -28.7298 267° West 411 473 34,000  Level FlightAware Transoceanic
Sun 09:50:00 AM 51.0415 -28.9114 267° West 411 473 34,000  Level FlightAware Transoceanic
Sun 09:51:00 AM 51.0353 -29.0930 267° West 411 473 34,000  Level FlightAware Transoceanic
Sun 09:52:00 AM 51.0288 -29.2745 267° West 411 473 34,000  Level FlightAware Transoceanic
Sun 09:53:00 AM 51.0220 -29.4560 267° West 411 473 34,000  Level FlightAware Transoceanic
Sun 09:54:00 AM 51.0149 -29.6374 266° West 411 473 34,000  Level FlightAware Transoceanic
Sun 09:55:00 AM 51.0076 -29.8187 266° West 411 473 34,000  Level FlightAware Transoceanic
Sun 09:56:00 AM 50.9997 -30.0068 266° West  Level FlightAware Approximate
Sun 09:57:00 AM 50.9992 -30.0136 265° West  Level FlightAware Approximate
Sun 09:58:00 AM 50.9886 -30.2013 265° West  Level FlightAware Approximate
Sun 09:59:00 AM 50.9777 -30.3889 265° West  Level FlightAware Approximate
Sun 09:59:00 AM 51.0000 -30.0000 265° West 421 484 34,000  Level ETMS Enhanced Traffic Management System
Sun 10:00:00 AM 50.9665 -30.5764 265° West  Level FlightAware Approximate
Sun 10:01:00 AM 50.9550 -30.7638 265° West  Level FlightAware Approximate
Sun 10:02:00 AM 50.9433 -30.9498 264° West  Level FlightAware Approximate
Sun 10:03:00 AM 50.9313 -31.1357 264° West  Level FlightAware Approximate
Sun 10:04:00 AM 50.9189 -31.3214 264° West  Level FlightAware Approximate
Sun 10:05:00 AM 50.9083 -31.4784 264° West 421 484 34,000  Level FlightAware Transoceanic
Sun 10:06:00 AM 50.8955 -31.6628 264° West 421 484 34,000  Level FlightAware Transoceanic
Sun 10:07:00 AM 50.8824 -31.8471 264° West 421 484 34,000  Level FlightAware Transoceanic
Sun 10:08:00 AM 50.8691 -32.0312 263° West 421 484 34,000  Level FlightAware Transoceanic
Sun 10:09:00 AM 50.8554 -32.2153 263° West 421 484 34,000  Level FlightAware Transoceanic
Sun 10:10:00 AM 50.8415 -32.3993 263° West 421 484 34,000  Level FlightAware Transoceanic
Sun 10:11:00 AM 50.8273 -32.5831 263° West 421 484 34,000  Level FlightAware Transoceanic
Sun 10:12:00 AM 50.8128 -32.7668 263° West 421 484 34,000  Level FlightAware Transoceanic
Sun 10:13:00 AM 50.7980 -32.9505 263° West 421 484 34,000  Level FlightAware Transoceanic
Sun 10:14:00 AM 50.7829 -33.1340 263° West 421 484 34,000  Level FlightAware Transoceanic
Sun 10:15:00 AM 50.7675 -33.3173 262° West 421 484 34,000  Level FlightAware Transoceanic
Sun 10:16:00 AM 50.7519 -33.5006 262° West 421 484 34,000  Level FlightAware Transoceanic
Sun 10:17:00 AM 50.7359 -33.6837 262° West 421 484 34,000  Level FlightAware Transoceanic
Sun 10:18:00 AM 50.7197 -33.8667 262° West 421 484 34,000  Level FlightAware Transoceanic
Sun 10:19:00 AM 50.7031 -34.0496 262° West 421 484 34,000  Level FlightAware Transoceanic
Sun 10:20:00 AM 50.6863 -34.2324 262° West 421 484 34,000  Level FlightAware Transoceanic
Sun 10:21:00 AM 50.6692 -34.4150 262° West 421 484 34,000  Level FlightAware Transoceanic
Sun 10:22:00 AM 50.6519 -34.5975 261° West 421 484 34,000  Level FlightAware Transoceanic
Sun 10:23:00 AM 50.6342 -34.7798 261° West 421 484 34,000  Level FlightAware Transoceanic
Sun 10:24:00 AM 50.6162 -34.9620 261° West 421 484 34,000  Level FlightAware Transoceanic
Sun 10:25:00 AM 50.5980 -35.1441 261° West 421 484 34,000  Level FlightAware Transoceanic
Sun 10:26:00 AM 50.5795 -35.3260 261° West 421 484 34,000  Level FlightAware Transoceanic
Sun 10:27:00 AM 50.5607 -35.5078 261° West 421 484 34,000  Level FlightAware Transoceanic
Sun 10:28:00 AM 50.5416 -35.6894 261° West 421 484 34,000  Level FlightAware Transoceanic
Sun 10:29:00 AM 50.5223 -35.8709 260° West 421 484 34,000  Level FlightAware Transoceanic
Sun 10:30:00 AM 50.5026 -36.0523 260° West 421 484 34,000  Level FlightAware Transoceanic
Sun 10:31:00 AM 50.4827 -36.2334 260° West 421 484 34,000  Level FlightAware Transoceanic
Sun 10:32:00 AM 50.4625 -36.4145 260° West 421 484 34,000  Level FlightAware Transoceanic
Sun 10:33:00 AM 50.4420 -36.5954 260° West 421 484 34,000  Level FlightAware Transoceanic
Sun 10:34:00 AM 50.4212 -36.7761 260° West 421 484 34,000  Level FlightAware Transoceanic
Sun 10:35:00 AM 50.4002 -36.9566 260° West 421 484 34,000  Level FlightAware Transoceanic
Sun 10:36:00 AM 50.3788 -37.1370 259° West 421 484 34,000  Level FlightAware Transoceanic
Sun 10:37:00 AM 50.3572 -37.3173 259° West 421 484 34,000  Level FlightAware Transoceanic
Sun 10:38:00 AM 50.3353 -37.4973 259° West 421 484 34,000  Level FlightAware Transoceanic
Sun 10:39:00 AM 50.3132 -37.6772 259° West 421 484 34,000  Level FlightAware Transoceanic
Sun 10:40:00 AM 50.2907 -37.8570 259° West 421 484 34,000  Level FlightAware Transoceanic
Sun 10:41:00 AM 50.2680 -38.0365 259° West 421 484 34,000  Level FlightAware Transoceanic
Sun 10:42:00 AM 50.2450 -38.2159 259° West 421 484 34,000  Level FlightAware Transoceanic
Sun 10:43:00 AM 50.2218 -38.3951 258° West 421 484 34,000  Level FlightAware Transoceanic
Sun 10:44:00 AM 50.1982 -38.5742 258° West 421 484 34,000  Level FlightAware Transoceanic
Sun 10:45:00 AM 50.1744 -38.7531 258° West 421 484 34,000  Level FlightAware Transoceanic
Sun 10:46:00 AM 50.1503 -38.9318 258° West 421 484 34,000  Level FlightAware Transoceanic
Sun 10:47:00 AM 50.1259 -39.1102 258° West 421 484 34,000  Level FlightAware Transoceanic
Sun 10:48:00 AM 50.1013 -39.2886 258° West 421 484 34,000  Level FlightAware Transoceanic
Sun 10:49:00 AM 50.0764 -39.4667 258° West 421 484 34,000  Level FlightAware Transoceanic
Sun 10:50:00 AM 50.0512 -39.6447 257° West 421 484 34,000  Level FlightAware Transoceanic
Sun 10:51:00 AM 50.0257 -39.8224 257° West 421 484 34,000  Level FlightAware Transoceanic
Sun 10:52:00 AM 49.9998 -40.0012 257° West  Level FlightAware Approximate
Sun 10:53:00 AM 49.9996 -40.0023 257° West  Level FlightAware Approximate
Sun 10:54:00 AM 49.9727 -40.1806 257° West  Level FlightAware Approximate
Sun 10:54:29 AM 50.0000 -40.0000 257° West 432 497 34,000  Level ETMS Enhanced Traffic Management System
Sun 10:55:00 AM 49.9455 -40.3586 257° West  Level FlightAware Approximate
Sun 10:56:00 AM 49.9179 -40.5365 257° West  Level FlightAware Approximate
Sun 10:57:00 AM 49.8902 -40.7141 256° West  Level FlightAware Approximate
Sun 10:58:00 AM 49.8621 -40.8916 256° West  Level FlightAware Approximate
Sun 10:59:00 AM 49.8338 -41.0688 256° West  Level FlightAware Approximate
Sun 11:00:00 AM 49.7127 -41.8107 255° West 432 497 34,000  Level FlightAware Transoceanic
Sun 11:01:00 AM 49.6824 -41.9906 255° West 432 497 34,000  Level FlightAware Transoceanic
Sun 11:02:00 AM 49.6518 -42.1702 255° West 432 497 34,000  Level FlightAware Transoceanic
Sun 11:03:00 AM 49.6210 -42.3497 255° West 432 497 34,000  Level FlightAware Transoceanic
Sun 11:04:00 AM 49.5899 -42.5289 255° West 432 497 34,000  Level FlightAware Transoceanic
Sun 11:05:00 AM 49.5585 -42.7078 255° West 432 497 34,000  Level FlightAware Transoceanic
Sun 11:06:00 AM 49.5268 -42.8866 255° West 432 497 34,000  Level FlightAware Transoceanic
Sun 11:07:00 AM 49.4949 -43.0651 255° West 432 497 34,000  Level FlightAware Transoceanic
Sun 11:08:00 AM 49.4627 -43.2433 254° West 432 497 34,000  Level FlightAware Transoceanic
Sun 11:09:00 AM 49.4302 -43.4214 254° West 432 497 34,000  Level FlightAware Transoceanic
Sun 11:10:00 AM 49.3974 -43.5992 254° West 432 497 34,000  Level FlightAware Transoceanic
Sun 11:11:00 AM 49.3644 -43.7767 254° West 432 497 34,000  Level FlightAware Transoceanic
Sun 11:12:00 AM 49.3311 -43.9540 254° West 432 497 34,000  Level FlightAware Transoceanic
Sun 11:13:00 AM 49.2976 -44.1311 254° West 432 497 34,000  Level FlightAware Transoceanic
Sun 11:14:00 AM 49.2637 -44.3079 254° West 432 497 34,000  Level FlightAware Transoceanic
Sun 11:15:00 AM 49.2296 -44.4845 253° West 432 497 34,000  Level FlightAware Transoceanic
Sun 11:16:00 AM 49.1952 -44.6609 253° West 432 497 34,000  Level FlightAware Transoceanic
Sun 11:17:00 AM 49.1606 -44.8370 253° West 432 497 34,000  Level FlightAware Transoceanic
Sun 11:18:00 AM 49.1256 -45.0128 253° West 432 497 34,000  Level FlightAware Transoceanic
Sun 11:19:00 AM 49.0905 -45.1884 253° West 432 497 34,000  Level FlightAware Transoceanic
Sun 11:20:00 AM 49.0550 -45.3638 253° West 432 497 34,000  Level FlightAware Transoceanic
Sun 11:21:00 AM 49.0193 -45.5389 253° West 432 497 34,000  Level FlightAware Transoceanic
Sun 11:22:00 AM 48.9833 -45.7137 253° West 432 497 34,000  Level FlightAware Transoceanic
Sun 11:23:00 AM 48.9471 -45.8883 252° West 432 497 34,000  Level FlightAware Transoceanic
Sun 11:24:00 AM 48.9106 -46.0627 252° West 432 497 34,000  Level FlightAware Transoceanic
Sun 11:25:00 AM 48.8738 -46.2368 252° West 432 497 34,000  Level FlightAware Transoceanic
Sun 11:26:00 AM 48.8368 -46.4106 252° West 432 497 34,000  Level FlightAware Transoceanic
Sun 11:27:00 AM 48.7995 -46.5842 252° West 432 497 34,000  Level FlightAware Transoceanic
Sun 11:28:00 AM 48.7619 -46.7575 252° West 432 497 34,000  Level FlightAware Transoceanic
Sun 11:29:00 AM 48.7241 -46.9305 252° West 432 497 34,000  Level FlightAware Transoceanic
Sun 11:30:00 AM 48.6861 -47.1033 251° West 432 497 34,000  Level FlightAware Transoceanic
Sun 11:31:00 AM 48.6477 -47.2759 251° West 432 497 34,000  Level FlightAware Transoceanic
Sun 11:32:00 AM 48.6091 -47.4481 251° West 432 497 34,000  Level FlightAware Transoceanic
Sun 11:33:00 AM 48.5703 -47.6202 251° West 432 497 34,000  Level FlightAware Transoceanic
Sun 11:34:00 AM 48.5312 -47.7919 251° West 432 497 34,000  Level FlightAware Transoceanic
Sun 11:35:00 AM 48.4919 -47.9634 251° West 432 497 34,000  Level FlightAware Transoceanic
Sun 11:36:00 AM 48.4522 -48.1346 251° West 432 497 34,000  Level FlightAware Transoceanic
Sun 11:37:00 AM 48.4124 -48.3055 251° West 432 497 34,000  Level FlightAware Transoceanic
Sun 11:38:00 AM 48.3723 -48.4762 250° West 432 497 34,000  Level FlightAware Transoceanic
Sun 11:39:00 AM 48.3319 -48.6466 250° West 432 497 34,000  Level FlightAware Transoceanic
Sun 11:40:00 AM 48.2913 -48.8167 250° West 432 497 34,000  Level FlightAware Transoceanic
Sun 11:41:00 AM 48.2504 -48.9866 250° West 432 497 34,000  Level FlightAware Transoceanic
Sun 11:42:00 AM 48.2093 -49.1562 250° West 432 497 34,000  Level FlightAware Transoceanic
Sun 11:43:00 AM 48.1679 -49.3255 250° West 432 497 34,000  Level FlightAware Transoceanic
Sun 11:44:00 AM 48.1263 -49.4945 250° West 432 497 34,000  Level FlightAware Transoceanic
Sun 11:45:00 AM 48.0845 -49.6633 250° West 432 497 34,000  Level FlightAware Transoceanic
Sun 11:46:00 AM 48.0424 -49.8318 249° West 432 497 34,000  Level FlightAware Transoceanic
Sun 11:47:00 AM 47.9969 -49.9942 247° West  Level FlightAware Approximate
Sun 11:48:00 AM 48.0000 -50.0000 255° West 415 478 34,000  Level ETMS Enhanced Traffic Management System
Sun 11:48:00 AM 48.0000 -49.9915 270° West  Level FlightAware Approximate
Sun 11:49:00 AM 47.9710 -50.1618 255° West  Level FlightAware Approximate
Sun 11:49:32 AM 47.9410 -50.3540 255° West 435 501 34,000  Level FlightAware ADS-B
Sun 11:50:00 AM 47.9403 -50.3315 255° West  Level FlightAware Approximate
Sun 11:50:52 AM 47.9020 -50.5880 256° West 436 502 34,000  Level FlightAware ADS-B
Sun 11:51:00 AM 47.9094 -50.5010 255° West  Level FlightAware Approximate
Sun 11:52:02 AM 47.8980 -50.8000 268° West 441 507 34,000  Level FlightAware ADS-B
Sun 11:53:02 AM 47.8990 -50.9710 271° West 440 506 34,000  Level FlightAware ADS-B
Sun 11:53:37 AM 47.9000 -51.0780 255° West 440 506 34,000  Level FlightAware ADS-B
Sun 11:54:22 AM 47.9010 -51.2140 271° West 440 506 34,000  Level FlightAware ADS-B
Sun 11:54:57 AM 47.9010 -51.3170 270° West 439 505 34,000  Level FlightAware ADS-B
Sun 11:55:37 AM 47.9020 -51.4400 271° West 438 504 34,000  Level FlightAware ADS-B
Sun 11:56:12 AM 47.9020 -51.5480 270° West 438 504 34,000  Level FlightAware ADS-B
Sun 11:56:52 AM 47.9020 -51.6650 270° West 438 504 34,000  Level FlightAware ADS-B
Sun 11:57:32 AM 47.9020 -51.7870 270° West 438 504 34,000  Level FlightAware ADS-B
Sun 11:58:27 AM 47.9020 -51.9640 270° West 438 504 34,000 420 Level FlightAware ADS-B
Sun 11:59:12 AM 47.9020 -52.0930 270° West 435 501 34,700 1,129 Climbing FlightAware ADS-B
Sun 11:59:52 AM 47.9010 -52.2150 269° West 434 499 35,600 975 Climbing FlightAware ADS-B
Sun 12:00:32 PM 47.9010 -52.3330 270° West 433 498 36,000 282 Climbing FlightAware ADS-B
Sun 12:01:17 PM 47.9000 -52.4700 269° West 429 494 36,000  Level FlightAware ADS-B
Sun 12:01:57 PM 47.8990 -52.5850 269° West 427 491 36,000  Level FlightAware ADS-B
Sun 12:02:37 PM 47.8990 -52.7050 270° West 426 490 36,000  Level FlightAware ADS-B
Sun 12:03:22 PM 47.8970 -52.8340 269° West 425 489 36,000  Level FlightAware ADS-B
Sun 12:04:07 PM 47.8960 -52.9670 269° West 424 488 36,000  Level FlightAware ADS-B
Sun 12:04:47 PM 47.8950 -53.0840 269° West 425 489 36,000  Level FlightAware ADS-B
Sun 12:05:27 PM 47.8940 -53.2020 269° West 425 489 36,000  Level FlightAware ADS-B
Sun 12:06:12 PM 47.8920 -53.3300 269° West 425 489 36,000  Level FlightAware ADS-B
Sun 12:06:52 PM 47.8900 -53.4460 269° West 426 490 36,000  Level FlightAware ADS-B
Sun 12:07:32 PM 47.8880 -53.5630 269° West 427 491 36,000  Level FlightAware ADS-B
Sun 12:08:17 PM 47.8860 -53.6980 269° West 429 494 36,000  Level FlightAware ADS-B
Sun 12:08:57 PM 47.8840 -53.8180 269° West 431 496 36,000  Level FlightAware ADS-B
Sun 12:09:42 PM 47.8820 -53.9430 269° West 432 497 36,000  Level FlightAware ADS-B
Sun 12:10:22 PM 47.8790 -54.0650 268° West 433 498 36,000  Level FlightAware ADS-B
Sun 12:11:02 PM 47.8770 -54.1820 269° West 434 499 36,000  Level FlightAware ADS-B
Sun 12:11:47 PM 47.8740 -54.3210 268° West 435 501 36,000  Level FlightAware ADS-B
Sun 12:12:27 PM 47.8710 -54.4400 268° West 435 501 36,000  Level FlightAware ADS-B
Sun 12:13:12 PM 47.8680 -54.5730 268° West 435 501 36,000  Level FlightAware ADS-B
Sun 12:13:52 PM 47.8650 -54.6910 268° West 435 501 36,000  Level FlightAware ADS-B
Sun 12:14:37 PM 47.8620 -54.8280 268° West 434 499 36,000  Level FlightAware ADS-B
Sun 12:15:17 PM 47.8590 -54.9480 268° West 432 497 36,000  Level FlightAware ADS-B
Sun 12:15:57 PM 47.8550 -55.0660 267° West 430 495 36,000  Level FlightAware ADS-B
Sun 12:16:42 PM 47.8510 -55.1970 267° West 429 494 36,000  Level FlightAware ADS-B
Sun 12:17:22 PM 47.8480 -55.3120 268° West 427 491 36,000  Level FlightAware ADS-B
Sun 12:18:07 PM 47.8440 -55.4480 268° West 425 489 36,000  Level FlightAware ADS-B
Sun 12:18:52 PM 47.8400 -55.5760 267° West 424 488 36,000  Level FlightAware ADS-B
Sun 12:19:27 PM 47.8360 -55.6800 267° West 423 487 36,000  Level FlightAware ADS-B
Sun 12:20:07 PM 47.8320 -55.7950 267° West 422 486 36,000  Level FlightAware ADS-B
Sun 12:20:47 PM 47.8280 -55.9110 267° West 421 484 36,000  Level FlightAware ADS-B
Sun 12:21:32 PM 47.8230 -56.0350 267° West 421 484 36,000  Level FlightAware ADS-B
Sun 12:22:12 PM 47.8190 -56.1550 267° West 420 483 36,000  Level FlightAware ADS-B
Sun 12:22:52 PM 47.8140 -56.2700 266° West 420 483 36,000  Level FlightAware ADS-B
Sun 12:23:37 PM 47.8090 -56.3980 267° West 421 484 36,000  Level FlightAware ADS-B
Sun 12:24:37 PM 47.8020 -56.5750 267° West 421 484 36,000  Level FlightAware ADS-B
Sun 12:25:17 PM 47.7970 -56.6900 266° West 421 484 36,000  Level FlightAware ADS-B
Sun 12:25:52 PM 47.7930 -56.7840 266° West 422 486 36,000  Level FlightAware ADS-B
Sun 12:26:32 PM 47.7880 -56.9060 267° West 422 486 36,000  Level FlightAware ADS-B
Sun 12:27:22 PM 47.7810 -57.0480 266° West 424 488 36,000  Level FlightAware ADS-B
Sun 12:27:57 PM 47.7770 -57.1450 267° West 424 488 36,000  Level FlightAware ADS-B
Sun 12:28:37 PM 47.7710 -57.2670 266° West 426 490 36,000  Level FlightAware ADS-B
Sun 12:29:22 PM 47.7640 -57.3810 265° West 426 490 36,000  Level FlightAware ADS-B
Sun 12:30:12 PM 47.7570 -57.5050 265° West 426 490 36,000  Level FlightAware ADS-B
Sun 12:30:52 PM 47.7510 -57.6040 265° West 426 490 36,000  Level FlightAware ADS-B
Sun 12:31:32 PM 47.7450 -57.7040 265° West 426 490 36,000  Level FlightAware ADS-B
Sun 12:32:12 PM 47.7390 -57.8030 265° West 426 490 36,000  Level FlightAware ADS-B
Sun 12:32:52 PM 47.7340 -57.9020 266° West 426 490 36,000  Level FlightAware ADS-B
Sun 12:33:42 PM 47.7260 -58.0260 265° West 426 490 36,000  Level FlightAware ADS-B
Sun 12:34:22 PM 47.7200 -58.1250 265° West 426 490 36,000  Level FlightAware ADS-B
Sun 12:35:02 PM 47.7150 -58.2250 266° West 426 490 36,000  Level FlightAware ADS-B
Sun 12:35:42 PM 47.7090 -58.3240 265° West 426 490 36,000  Level FlightAware ADS-B
Sun 12:36:22 PM 47.7030 -58.4230 265° West 426 490 36,000  Level FlightAware ADS-B
Sun 12:37:12 PM 47.6960 -58.5470 265° West 426 490 36,000  Level FlightAware ADS-B
Sun 12:37:52 PM 47.6900 -58.6460 265° West 426 490 36,000  Level FlightAware ADS-B
Sun 12:38:32 PM 47.6840 -58.7450 265° West 426 490 36,000  Level FlightAware ADS-B
Sun 12:38:57 PM 47.6500 -59.0333 265° West 420 483 36,000  Level Moncton Center
Sun 12:39:57 PM 47.6500 -59.2000 270° West 420 483 36,000  Level Moncton Center
Sun 12:40:57 PM 47.6333 -59.3833 262° West 420 483 36,000  Level Moncton Center
Sun 12:41:57 PM 47.6333 -59.5500 270° West 420 483 36,000  Level Moncton Center
Sun 12:42:57 PM 47.6000 -59.7333 255° West 420 483 36,000  Level Moncton Center
Sun 12:43:57 PM 47.6000 -59.9000 270° West 430 495 36,000  Level Moncton Center
Sun 12:44:57 PM 47.5833 -60.0833 262° West 430 495 36,000  Level Moncton Center
Sun 12:51:02 PM 47.5150 -61.1850 262° West 444 511 36,000  Level FlightAware ADS-B
Sun 12:51:47 PM 47.5050 -61.3060 263° West 444 511 36,000  Level FlightAware ADS-B
Sun 12:52:27 PM 47.4970 -61.4080 263° West 444 511 36,000  Level FlightAware ADS-B
Sun 12:53:17 PM 47.4860 -61.5370 263° West 444 511 36,000  Level FlightAware ADS-B
Sun 12:53:57 PM 47.4780 -61.6390 263° West 444 511 36,000  Level FlightAware ADS-B
Sun 12:54:37 PM 47.4690 -61.7420 263° West 444 511 36,000  Level FlightAware ADS-B
Sun 12:55:17 PM 47.4610 -61.8440 263° West 444 511 36,000  Level FlightAware ADS-B
Sun 12:55:57 PM 47.4520 -61.9470 263° West 444 511 36,000  Level FlightAware ADS-B
Sun 12:56:47 PM 47.4410 -62.0750 263° West 444 511 36,000  Level FlightAware ADS-B
Sun 12:57:27 PM 47.4330 -62.1770 263° West 444 511 36,000  Level FlightAware ADS-B
Sun 12:58:07 PM 47.4240 -62.2800 263° West 444 511 36,000  Level FlightAware ADS-B
Sun 12:58:47 PM 47.4160 -62.3820 263° West 444 511 36,000  Level FlightAware ADS-B
Sun 12:59:27 PM 47.4070 -62.4850 263° West 444 511 36,000  Level FlightAware ADS-B
Sun 01:00:17 PM 47.3970 -62.6130 263° West 444 511 36,000  Level FlightAware ADS-B
Sun 01:00:57 PM 47.3880 -62.7150 263° West 444 511 36,000  Level FlightAware ADS-B
Sun 01:01:46 PM 47.3333 -63.1000 263° West 450 518 36,000  Level Gander Center
Sun 01:02:46 PM 47.3167 -63.3000 263° West 450 518 36,000  Level Gander Center
Sun 01:03:46 PM 47.2833 -63.4667 254° West 450 518 36,000  Level Gander Center
Sun 01:04:46 PM 47.2667 -63.6500 262° West 450 518 36,000  Level Gander Center
Sun 01:05:46 PM 47.2500 -63.8333 262° West 450 518 36,000  Level Gander Center
Sun 01:06:46 PM 47.2333 -64.0167 262° West 450 518 36,000  Level Gander Center
Sun 01:07:46 PM 47.2000 -64.1833 254° West 450 518 36,000  Level Gander Center
Sun 01:08:46 PM 47.1833 -64.3833 263° West 450 518 36,000  Level Gander Center
Sun 01:09:46 PM 47.1667 -64.5500 262° West 450 518 36,000  Level Gander Center
Sun 01:10:46 PM 47.1500 -64.7167 262° West 450 518 36,000  Level Gander Center
Sun 01:11:46 PM 47.1333 -64.9167 263° West 440 506 36,000  Level Gander Center
Sun 01:12:46 PM 47.1167 -65.0833 262° West 440 506 36,000  Level Gander Center
Sun 01:13:57 PM 47.0833 -65.3000 257° West 440 506 36,000  Level Moncton Center
Sun 01:14:57 PM 47.0667 -65.4833 262° West 440 506 36,000  Level Moncton Center
Sun 01:15:57 PM 47.0333 -65.6667 255° West 450 518 36,000  Level Moncton Center
Sun 01:16:57 PM 47.0167 -65.8500 262° West 450 518 36,000  Level Moncton Center
Sun 01:17:57 PM 47.0000 -66.0167 262° West 450 518 36,000  Level Moncton Center
Sun 01:18:57 PM 46.9667 -66.1833 254° West 450 518 36,000  Level Moncton Center
Sun 01:19:57 PM 46.9500 -66.3833 263° West 450 518 36,000  Level Moncton Center
Sun 01:20:57 PM 46.9333 -66.5500 262° West 450 518 36,000  Level Moncton Center
Sun 01:21:57 PM 46.9000 -66.7167 254° West 450 518 36,000 -50 Level Moncton Center
Sun 01:22:57 PM 46.8833 -66.9167 263° West 450 518 35,900  Descending Moncton Center
Sun 01:23:36 PM 46.8772 -67.0256 265° West 456 525 36,000 100 Climbing Boston Center
Sun 01:23:57 PM 46.8500 -67.0833 235° Southwest 450 518 36,000  Level Moncton Center
Sun 01:29:52 PM 46.6250 -68.1070 235° Southwest 433 498 36,000  Level FlightAware ADS-B
Sun 01:30:22 PM 46.6040 -68.1940 251° West 432 497 36,000  Level FlightAware ADS-B
Sun 01:31:27 PM 46.5610 -68.3730 251° West 431 496 36,000  Level FlightAware ADS-B
Sun 01:32:10 PM 46.5167 -68.4500 251° West 430 495 36,000  Level Montreal Center
Sun 01:32:36 PM 46.5175 -68.5689 271° West 440 506 36,000  Level Boston Center
Sun 01:33:36 PM 46.4747 -68.7317 249° West 434 499 36,000  Level Boston Center
Sun 01:34:36 PM 46.4339 -68.8939 250° West 434 499 36,000  Level Boston Center
Sun 01:35:36 PM 46.3950 -69.0558 251° West 434 499 36,000  Level Boston Center
Sun 01:35:57 PM 46.3667 -69.1000 227° Southwest 430 495 36,000  Level Moncton Center
Sun 01:36:36 PM 46.3686 -69.1536 273° West 434 499 36,000  Level Boston Center
Sun 01:37:36 PM 46.3081 -69.3797 249° West 434 499 36,000  Level Boston Center
Sun 01:38:36 PM 46.2664 -69.5439 250° West 434 499 36,000  Level Boston Center
Sun 01:39:36 PM 46.2267 -69.7019 250° West 434 499 36,000  Level Boston Center
Sun 01:40:36 PM 46.1825 -69.8689 249° West 434 499 36,000  Level Boston Center
Sun 01:41:36 PM 46.1422 -70.0294 250° West 434 499 36,000  Level Boston Center
Sun 01:42:36 PM 46.0953 -70.1900 247° West 439 505 36,000  Level Boston Center
Sun 01:43:10 PM 46.0667 -70.2667 242° Southwest 430 495 36,000  Level Montreal Center
Sun 01:44:10 PM 46.0167 -70.4167 244° Southwest 430 495 36,000  Level Montreal Center
Sun 01:45:10 PM 45.9833 -70.5833 254° West 430 495 36,000  Level Montreal Center
Sun 01:46:10 PM 45.9333 -70.7667 249° West 430 495 36,000 -450 Level Montreal Center
Sun 01:47:10 PM 45.9167 -70.9000 260° West 430 495 35,100 -900 Descending Montreal Center
Sun 01:48:10 PM 45.9000 -71.0833 263° West 410 472 34,200 -950 Descending Montreal Center
Sun 01:49:10 PM 45.8667 -71.2500 254° West 410 472 33,200 -1,000 Descending Montreal Center
Sun 01:50:10 PM 45.8667 -71.4000 270° West 420 483 32,200 -1,000 Descending Montreal Center
Sun 01:51:10 PM 45.8500 -71.5833 263° West 430 495 31,200 -1,200 Descending Montreal Center
Sun 01:52:10 PM 45.8333 -71.7333 261° West 430 495 29,800 -2,333 Descending Montreal Center
Sun 01:58:17 PM 45.7490 -72.7290 261° West 353 406 14,600 -2,505 Descending FlightAware ADS-B
Sun 01:59:02 PM 45.7390 -72.8290 262° West 346 398 12,600 -2,753 Descending FlightAware ADS-B
Sun 01:59:42 PM 45.7300 -72.9190 262° West 339 390 10,700 -1,875 Descending FlightAware ADS-B
Sun 02:00:22 PM 45.7210 -73.0040 261° West 299 344 10,100 -857 Descending FlightAware ADS-B
Sun 02:00:52 PM 45.7150 -73.0590 261° West 281 323 9,700 -933 Descending FlightAware ADS-B
Sun 02:01:07 PM 45.7120 -73.0880 262° West 276 318 9,400 -1,200 Descending FlightAware ADS-B
Sun 02:01:32 PM 45.7070 -73.1310 261° West 273 314 8,900 -1,500 Descending FlightAware ADS-B
Sun 02:01:47 PM 45.7020 -73.1600 256° West 272 313 8,400 -1,600 Descending FlightAware ADS-B
Sun 02:02:17 PM 45.6940 -73.2120 258° West 271 312 7,700 -1,309 Descending FlightAware ADS-B
Sun 02:02:42 PM 45.6860 -73.2530 254° West 269 310 7,200 -1,500 Descending FlightAware ADS-B
Sun 02:02:57 PM 45.6750 -73.2760 236° Southwest 267 307 6,700 -1,500 Descending FlightAware ADS-B
Sun 02:03:22 PM 45.6530 -73.3050 223° Southwest 266 306 6,200 -1,350 Descending FlightAware ADS-B
Sun 02:03:37 PM 45.6420 -73.3280 236° Southwest 265 305 5,800 -1,200 Descending FlightAware ADS-B
Sun 02:03:52 PM 45.6400 -73.3480 262° West 264 304 5,600 -800 Descending FlightAware ADS-B
Sun 02:04:22 PM 45.6560 -73.3910 298° West 257 296 5,200 -873 Descending FlightAware ADS-B
Sun 02:04:47 PM 45.6750 -73.4170 316° Northwest 245 282 4,800 -873 Descending FlightAware ADS-B
Sun 02:05:17 PM 45.6980 -73.4500 315° West 223 257 4,400 -800 Descending FlightAware ADS-B
Sun 02:05:32 PM 45.7060 -73.4710 299° West 211 243 4,200 -600 Descending FlightAware ADS-B
Sun 02:05:37 PM 45.7070 -73.4800 279° West 207 238 4,200 -960 Level FlightAware ADS-B
Sun 02:05:57 PM 45.6970 -73.5030 238° Southwest 186 214 3,800 -1,029 Descending FlightAware ADS-B
Sun 02:06:12 PM 45.6860 -73.5070 194° South 188 216 3,600 -686 Descending FlightAware ADS-B
Sun 02:06:32 PM 45.6690 -73.5040 173° South 191 220 3,400 -533 Descending FlightAware ADS-B
Sun 02:06:57 PM 45.6480 -73.5190 207° Southwest 174 200 3,200 -360 Descending FlightAware ADS-B
Sun 02:07:22 PM 45.6340 -73.5380 224° Southwest 172 198 3,100 -218 Descending FlightAware ADS-B
Sun 02:07:52 PM 45.6170 -73.5610 223° Southwest 170 196 3,000 -109 Descending FlightAware ADS-B
Sun 02:08:17 PM 45.6020 -73.5800 222° Southwest 178 205 3,000 -327 Level FlightAware ADS-B
Sun 02:08:47 PM 45.5840 -73.6030 222° Southwest 181 208 2,700 -750 Descending FlightAware ADS-B
Sun 02:08:57 PM 45.5780 -73.6120 226° Southwest 182 209 2,500 -1,200 Descending FlightAware ADS-B
Sun 02:09:27 PM 45.5590 -73.6370 223° Southwest 181 208 1,900 -1,200 Descending FlightAware ADS-B
Sun 02:09:42 PM 45.5490 -73.6500 222° Southwest 173 199 1,600 -800 Descending FlightAware ADS-B
Sun 02:10:12 PM 45.5330 -73.6710 223° Southwest 163 188 1,300 -764 Descending FlightAware ADS-B
Sun 02:10:37 PM 45.5190 -73.6890 222° Southwest 148 170 900 -933 Descending FlightAware ADS-B
Sun 02:10:57 PM 45.5090 -73.7020 222° Southwest 145 167 600 -720 Descending FlightAware ADS-B
Sun 02:11:27 PM 45.4960 -73.7190 223° Southwest 147 169 300 -600 Descending FlightAware ADS-B
Sun 02:12:02 PM 45.4800 -73.7400 223° Southwest 140 161 -514 Descending FlightAware ADS-B

Login

Don't have an account? Register now (free) for customized features, flight alerts, and more!